sensor_id;sensor_type;location;lat;lon;timestamp;pressure;altitude;pressure_sealevel;temperature;humidity
75409;BME280;63979;55.644;37.734;2024-03-25T00:01:43;98456.88;;;5.38;78.47
75409;BME280;63979;55.644;37.734;2024-03-25T00:06:44;98459.00;;;5.08;75.06
75409;BME280;63979;55.644;37.734;2024-03-25T00:11:44;98513.78;;;5.18;73.17
75409;BME280;63979;55.644;37.734;2024-03-25T00:16:45;98512.59;;;4.97;72.66
75409;BME280;63979;55.644;37.734;2024-03-25T00:21:47;98528.59;;;4.68;72.70
75409;BME280;63979;55.644;37.734;2024-03-25T00:26:47;98537.25;;;4.70;72.80
75409;BME280;63979;55.644;37.734;2024-03-25T00:31:48;98537.41;;;4.82;72.29
75409;BME280;63979;55.644;37.734;2024-03-25T00:36:50;98553.53;;;4.91;72.37
75409;BME280;63979;55.644;37.734;2024-03-25T00:41:50;98540.63;;;4.87;71.58
75409;BME280;63979;55.644;37.734;2024-03-25T00:46:52;98553.22;;;4.69;72.09
75409;BME280;63979;55.644;37.734;2024-03-25T00:51:53;98559.69;;;4.51;72.59
75409;BME280;63979;55.644;37.734;2024-03-25T00:56:54;98574.97;;;4.60;72.48
75409;BME280;63979;55.644;37.734;2024-03-25T01:01:55;98564.56;;;4.30;72.71
75409;BME280;63979;55.644;37.734;2024-03-25T01:06:56;98595.50;;;4.14;73.05
75409;BME280;63979;55.644;37.734;2024-03-25T01:11:56;98596.25;;;4.30;73.20
75409;BME280;63979;55.644;37.734;2024-03-25T01:16:57;98602.28;;;4.32;72.89
75409;BME280;63979;55.644;37.734;2024-03-25T01:21:58;98595.88;;;4.36;73.45
75409;BME280;63979;55.644;37.734;2024-03-25T01:26:59;98593.06;;;4.25;71.80
75409;BME280;63979;55.644;37.734;2024-03-25T01:32:00;98631.41;;;4.45;72.14
75409;BME280;63979;55.644;37.734;2024-03-25T01:37:03;98605.59;;;4.35;71.94
75409;BME280;63979;55.644;37.734;2024-03-25T01:42:04;98617.75;;;4.38;71.77
75409;BME280;63979;55.644;37.734;2024-03-25T01:47:05;98617.38;;;4.30;71.21
75409;BME280;63979;55.644;37.734;2024-03-25T01:52:06;98645.28;;;4.48;70.87
75409;BME280;63979;55.644;37.734;2024-03-25T01:57:07;98658.50;;;4.34;69.86
75409;BME280;63979;55.644;37.734;2024-03-25T02:02:10;98654.34;;;4.16;70.17
75409;BME280;63979;55.644;37.734;2024-03-25T02:07:13;98661.91;;;4.07;70.68
75409;BME280;63979;55.644;37.734;2024-03-25T02:12:14;98662.94;;;4.05;71.88
75409;BME280;63979;55.644;37.734;2024-03-25T02:17:15;98642.28;;;3.83;72.79
75409;BME280;63979;55.644;37.734;2024-03-25T02:22:16;98683.78;;;4.10;73.94
75409;BME280;63979;55.644;37.734;2024-03-25T02:27:17;98685.03;;;4.18;73.66
75409;BME280;63979;55.644;37.734;2024-03-25T02:32:18;98690.16;;;3.91;74.89
75409;BME280;63979;55.644;37.734;2024-03-25T02:37:19;98690.25;;;3.90;73.53
75409;BME280;63979;55.644;37.734;2024-03-25T02:42:21;98717.72;;;4.01;72.81
75409;BME280;63979;55.644;37.734;2024-03-25T02:47:22;98728.94;;;4.05;72.54
75409;BME280;63979;55.644;37.734;2024-03-25T02:52:23;98748.72;;;3.98;73.08
75409;BME280;63979;55.644;37.734;2024-03-25T02:57:24;98748.97;;;4.23;71.76
75409;BME280;63979;55.644;37.734;2024-03-25T03:02:25;98738.59;;;4.34;70.74
75409;BME280;63979;55.644;37.734;2024-03-25T03:07:26;98734.16;;;4.49;69.83
75409;BME280;63979;55.644;37.734;2024-03-25T03:12:27;98743.50;;;4.41;68.65
75409;BME280;63979;55.644;37.734;2024-03-25T03:17:28;98754.16;;;4.39;69.29
75409;BME280;63979;55.644;37.734;2024-03-25T03:22:29;98760.78;;;4.46;69.63
75409;BME280;63979;55.644;37.734;2024-03-25T03:27:30;98771.53;;;4.43;68.97
75409;BME280;63979;55.644;37.734;2024-03-25T03:32:31;98785.03;;;4.38;69.42
75409;BME280;63979;55.644;37.734;2024-03-25T03:37:31;98788.38;;;4.56;69.77
75409;BME280;63979;55.644;37.734;2024-03-25T03:42:32;98783.28;;;4.53;68.66
75409;BME280;63979;55.644;37.734;2024-03-25T03:47:33;98795.31;;;4.43;68.05
75409;BME280;63979;55.644;37.734;2024-03-25T03:52:34;98779.94;;;4.35;67.46
75409;BME280;63979;55.644;37.734;2024-03-25T03:57:35;98797.56;;;4.49;67.01
75409;BME280;63979;55.644;37.734;2024-03-25T04:02:38;98810.34;;;4.57;66.33
75409;BME280;63979;55.644;37.734;2024-03-25T04:07:39;98821.69;;;4.59;66.52
75409;BME280;63979;55.644;37.734;2024-03-25T04:12:39;98831.88;;;4.65;65.69
75409;BME280;63979;55.644;37.734;2024-03-25T04:17:40;98829.03;;;4.54;65.99
75409;BME280;63979;55.644;37.734;2024-03-25T04:22:42;98837.09;;;4.95;65.30
75409;BME280;63979;55.644;37.734;2024-03-25T04:27:44;98852.38;;;5.04;64.52
75409;BME280;63979;55.644;37.734;2024-03-25T04:32:45;98853.50;;;4.72;64.55
75409;BME280;63979;55.644;37.734;2024-03-25T04:37:46;98865.97;;;4.84;64.38
75409;BME280;63979;55.644;37.734;2024-03-25T04:42:47;98856.94;;;4.88;63.95
75409;BME280;63979;55.644;37.734;2024-03-25T04:47:48;98903.28;;;4.93;64.31
75409;BME280;63979;55.644;37.734;2024-03-25T04:52:49;98900.47;;;5.11;64.19
75409;BME280;63979;55.644;37.734;2024-03-25T04:57:49;98887.25;;;5.11;63.34
75409;BME280;63979;55.644;37.734;2024-03-25T05:02:50;98905.00;;;5.09;63.07
75409;BME280;63979;55.644;37.734;2024-03-25T05:07:51;98916.81;;;5.31;63.75
75409;BME280;63979;55.644;37.734;2024-03-25T05:12:52;98932.41;;;5.50;62.42
75409;BME280;63979;55.644;37.734;2024-03-25T05:17:53;98944.44;;;5.56;62.01
75409;BME280;63979;55.644;37.734;2024-03-25T05:22:53;98945.09;;;5.59;62.58
75409;BME280;63979;55.644;37.734;2024-03-25T05:27:55;98954.13;;;5.70;60.98
75409;BME280;63979;55.644;37.734;2024-03-25T05:32:55;98952.34;;;5.99;60.12
75409;BME280;63979;55.644;37.734;2024-03-25T05:37:56;98960.19;;;6.00;60.01
75409;BME280;63979;55.644;37.734;2024-03-25T05:42:57;98970.03;;;5.98;59.89
75409;BME280;63979;55.644;37.734;2024-03-25T05:47:58;98971.94;;;6.23;59.31
75409;BME280;63979;55.644;37.734;2024-03-25T05:52:59;98985.25;;;6.36;58.64
75409;BME280;63979;55.644;37.734;2024-03-25T05:58:00;98988.50;;;6.80;56.82
75409;BME280;63979;55.644;37.734;2024-03-25T06:03:01;98991.00;;;6.96;57.40
75409;BME280;63979;55.644;37.734;2024-03-25T06:08:02;99017.22;;;7.26;56.84
75409;BME280;63979;55.644;37.734;2024-03-25T06:13:03;99009.75;;;9.04;52.15
75409;BME280;63979;55.644;37.734;2024-03-25T06:18:04;99029.38;;;11.05;45.99
75409;BME280;63979;55.644;37.734;2024-03-25T06:23:05;99034.06;;;14.84;38.67
75409;BME280;63979;55.644;37.734;2024-03-25T06:28:06;99023.13;;;15.13;36.00
75409;BME280;63979;55.644;37.734;2024-03-25T06:33:09;99040.66;;;17.96;32.51
75409;BME280;63979;55.644;37.734;2024-03-25T06:38:28;99036.50;;;19.33;29.54
75409;BME280;63979;55.644;37.734;2024-03-25T06:43:30;99064.94;;;19.83;30.67
75409;BME280;63979;55.644;37.734;2024-03-25T06:48:31;99046.44;;;21.62;25.71
75409;BME280;63979;55.644;37.734;2024-03-25T06:53:32;99079.31;;;22.45;25.64
75409;BME280;63979;55.644;37.734;2024-03-25T07:03:53;99097.25;;;22.39;24.68
75409;BME280;63979;55.644;37.734;2024-03-25T07:14:14;99110.06;;;23.75;22.48
75409;BME280;63979;55.644;37.734;2024-03-25T07:19:15;99124.34;;;24.10;21.29
75409;BME280;63979;55.644;37.734;2024-03-25T07:24:15;99141.19;;;20.85;24.11
75409;BME280;63979;55.644;37.734;2024-03-25T07:29:16;99127.41;;;17.93;29.35
75409;BME280;63979;55.644;37.734;2024-03-25T07:34:17;99140.19;;;16.14;31.04
75409;BME280;63979;55.644;37.734;2024-03-25T07:39:18;99149.72;;;16.78;30.79
75409;BME280;63979;55.644;37.734;2024-03-25T07:44:19;99155.03;;;16.18;31.63
75409;BME280;63979;55.644;37.734;2024-03-25T07:49:20;99162.50;;;17.10;30.67
75409;BME280;63979;55.644;37.734;2024-03-25T07:54:21;99165.97;;;15.00;31.82
75409;BME280;63979;55.644;37.734;2024-03-25T07:59:22;99161.13;;;13.23;36.00
75409;BME280;63979;55.644;37.734;2024-03-25T08:09:42;99169.88;;;18.80;28.11
75409;BME280;63979;55.644;37.734;2024-03-25T08:14:43;99163.19;;;17.87;28.73
75409;BME280;63979;55.644;37.734;2024-03-25T08:19:44;99176.16;;;16.74;30.40
75409;BME280;63979;55.644;37.734;2024-03-25T08:24:44;99171.81;;;15.41;32.16
75409;BME280;63979;55.644;37.734;2024-03-25T08:29:48;99179.16;;;17.05;31.12
75409;BME280;63979;55.644;37.734;2024-03-25T08:34:51;99179.00;;;22.31;23.46
75409;BME280;63979;55.644;37.734;2024-03-25T08:39:52;99189.84;;;25.99;19.93
75409;BME280;63979;55.644;37.734;2024-03-25T08:44:53;99189.38;;;24.07;21.56
75409;BME280;63979;55.644;37.734;2024-03-25T08:49:54;99191.19;;;25.32;20.47
75409;BME280;63979;55.644;37.734;2024-03-25T08:54:54;99200.28;;;24.00;20.56
75409;BME280;63979;55.644;37.734;2024-03-25T08:59:55;99199.91;;;19.72;25.10
75409;BME280;63979;55.644;37.734;2024-03-25T09:04:56;99195.63;;;17.36;28.89
75409;BME280;63979;55.644;37.734;2024-03-25T09:09:57;99199.13;;;17.29;29.89
75409;BME280;63979;55.644;37.734;2024-03-25T09:15:16;99210.84;;;24.30;21.74
75409;BME280;63979;55.644;37.734;2024-03-25T09:20:17;99195.84;;;28.82;15.50
75409;BME280;63979;55.644;37.734;2024-03-25T09:25:19;99236.25;;;32.79;12.98
75409;BME280;63979;55.644;37.734;2024-03-25T09:30:19;99234.56;;;31.53;13.56
75409;BME280;63979;55.644;37.734;2024-03-25T09:35:20;99238.91;;;29.75;15.33
75409;BME280;63979;55.644;37.734;2024-03-25T09:40:21;99232.25;;;25.12;18.75
75409;BME280;63979;55.644;37.734;2024-03-25T09:45:25;99225.56;;;22.92;21.44
75409;BME280;63979;55.644;37.734;2024-03-25T09:50:28;99222.44;;;20.78;22.36
75409;BME280;63979;55.644;37.734;2024-03-25T09:55:30;99226.28;;;22.08;22.64
75409;BME280;63979;55.644;37.734;2024-03-25T10:00:31;99234.06;;;23.17;20.79
75409;BME280;63979;55.644;37.734;2024-03-25T10:05:32;99233.25;;;22.60;21.63
75409;BME280;63979;55.644;37.734;2024-03-25T10:10:36;99228.47;;;27.22;17.34
75409;BME280;63979;55.644;37.734;2024-03-25T10:15:41;99236.25;;;29.16;16.04
75409;BME280;63979;55.644;37.734;2024-03-25T10:20:49;99238.41;;;30.18;14.43
75409;BME280;63979;55.644;37.734;2024-03-25T10:25:52;99227.28;;;28.86;15.06
75409;BME280;63979;55.644;37.734;2024-03-25T10:30:54;99229.50;;;27.02;17.06
75409;BME280;63979;55.644;37.734;2024-03-25T10:35:58;99231.28;;;27.15;16.41
75409;BME280;63979;55.644;37.734;2024-03-25T10:41:00;99216.06;;;28.87;14.75
75409;BME280;63979;55.644;37.734;2024-03-25T10:46:02;99242.69;;;28.34;15.25
75409;BME280;63979;55.644;37.734;2024-03-25T10:51:04;99252.94;;;31.86;13.24
75409;BME280;63979;55.644;37.734;2024-03-25T10:56:08;99258.66;;;32.50;12.97
75409;BME280;63979;55.644;37.734;2024-03-25T11:01:10;99231.25;;;30.96;13.51
75409;BME280;63979;55.644;37.734;2024-03-25T11:06:11;99250.22;;;26.92;16.76
75409;BME280;63979;55.644;37.734;2024-03-25T11:11:13;99243.84;;;23.80;19.61
75409;BME280;63979;55.644;37.734;2024-03-25T11:16:26;99256.59;;;22.76;20.55
75409;BME280;63979;55.644;37.734;2024-03-25T11:21:27;99250.94;;;21.41;22.44
75409;BME280;63979;55.644;37.734;2024-03-25T11:26:30;99253.75;;;23.94;19.88
75409;BME280;63979;55.644;37.734;2024-03-25T11:31:38;99240.66;;;24.84;18.30
75409;BME280;63979;55.644;37.734;2024-03-25T11:36:39;99259.91;;;26.69;17.06
75409;BME280;63979;55.644;37.734;2024-03-25T11:41:44;99243.66;;;29.04;14.91
75409;BME280;63979;55.644;37.734;2024-03-25T11:46:45;99278.66;;;30.19;14.06
75409;BME280;63979;55.644;37.734;2024-03-25T11:51:46;99266.81;;;31.14;14.04
75409;BME280;63979;55.644;37.734;2024-03-25T11:56:47;99283.28;;;32.79;12.06
75409;BME280;63979;55.644;37.734;2024-03-25T12:01:48;99288.69;;;33.33;11.83
75409;BME280;63979;55.644;37.734;2024-03-25T12:06:54;99288.50;;;33.49;12.09
75409;BME280;63979;55.644;37.734;2024-03-25T12:11:57;99290.63;;;29.38;13.59
75409;BME280;63979;55.644;37.734;2024-03-25T12:16:59;99298.84;;;31.32;13.23
75409;BME280;63979;55.644;37.734;2024-03-25T12:22:00;99295.66;;;32.01;12.35
75409;BME280;63979;55.644;37.734;2024-03-25T12:27:01;99294.63;;;29.82;13.60
75409;BME280;63979;55.644;37.734;2024-03-25T12:32:03;99298.81;;;30.65;13.94
75409;BME280;63979;55.644;37.734;2024-03-25T12:37:04;99305.91;;;30.78;13.55
75409;BME280;63979;55.644;37.734;2024-03-25T12:42:05;99303.81;;;29.99;13.88
75409;BME280;63979;55.644;37.734;2024-03-25T12:47:07;99293.13;;;30.43;13.70
75409;BME280;63979;55.644;37.734;2024-03-25T12:52:08;99301.91;;;30.40;13.60
75409;BME280;63979;55.644;37.734;2024-03-25T12:57:10;99287.84;;;30.25;14.34
75409;BME280;63979;55.644;37.734;2024-03-25T13:02:12;99299.56;;;31.44;13.36
75409;BME280;63979;55.644;37.734;2024-03-25T13:07:13;99291.66;;;31.31;13.38
75409;BME280;63979;55.644;37.734;2024-03-25T13:12:14;99292.19;;;29.57;14.35
75409;BME280;63979;55.644;37.734;2024-03-25T13:17:15;99293.78;;;27.68;14.81
75409;BME280;63979;55.644;37.734;2024-03-25T13:22:16;99286.66;;;27.60;15.14
75409;BME280;63979;55.644;37.734;2024-03-25T13:27:17;99272.81;;;25.86;16.72
75409;BME280;63979;55.644;37.734;2024-03-25T13:32:19;99239.34;;;26.85;15.66
75409;BME280;63979;55.644;37.734;2024-03-25T13:37:20;99285.13;;;26.78;15.81
75409;BME280;63979;55.644;37.734;2024-03-25T13:42:20;99282.00;;;26.99;15.91
75409;BME280;63979;55.644;37.734;2024-03-25T13:47:21;99288.06;;;25.69;16.66
75409;BME280;63979;55.644;37.734;2024-03-25T13:52:22;99282.59;;;23.69;18.89
75409;BME280;63979;55.644;37.734;2024-03-25T13:57:23;99252.47;;;23.90;18.22
75409;BME280;63979;55.644;37.734;2024-03-25T14:02:24;99290.13;;;23.67;18.95
75409;BME280;63979;55.644;37.734;2024-03-25T14:07:25;99284.06;;;23.65;18.96
75409;BME280;63979;55.644;37.734;2024-03-25T14:12:26;99283.63;;;21.33;21.00
75409;BME280;63979;55.644;37.734;2024-03-25T14:17:26;99281.75;;;19.51;23.28
75409;BME280;63979;55.644;37.734;2024-03-25T14:22:27;99274.44;;;17.56;25.83
75409;BME280;63979;55.644;37.734;2024-03-25T14:27:28;99282.16;;;16.04;28.37
75409;BME280;63979;55.644;37.734;2024-03-25T14:32:29;99286.22;;;14.88;30.23
75409;BME280;63979;55.644;37.734;2024-03-25T14:37:30;99291.38;;;14.62;30.43
75409;BME280;63979;55.644;37.734;2024-03-25T14:42:31;99303.13;;;14.23;31.08
75409;BME280;63979;55.644;37.734;2024-03-25T14:47:33;99310.25;;;13.24;32.27
75409;BME280;63979;55.644;37.734;2024-03-25T14:52:33;99293.47;;;12.80;33.24
75409;BME280;63979;55.644;37.734;2024-03-25T14:57:34;99298.03;;;12.48;34.71
75409;BME280;63979;55.644;37.734;2024-03-25T15:02:35;99305.56;;;12.01;34.97
75409;BME280;63979;55.644;37.734;2024-03-25T15:07:36;99291.56;;;11.54;36.43
75409;BME280;63979;55.644;37.734;2024-03-25T15:12:38;99301.91;;;10.92;38.39
75409;BME280;63979;55.644;37.734;2024-03-25T15:17:40;99304.66;;;10.57;37.90
75409;BME280;63979;55.644;37.734;2024-03-25T15:22:41;99308.56;;;10.29;41.08
75409;BME280;63979;55.644;37.734;2024-03-25T15:27:44;99291.06;;;10.01;41.41
75409;BME280;63979;55.644;37.734;2024-03-25T15:32:45;99333.47;;;9.93;41.54
75409;BME280;63979;55.644;37.734;2024-03-25T15:37:46;99326.16;;;9.71;41.71
75409;BME280;63979;55.644;37.734;2024-03-25T15:42:47;99347.31;;;9.61;45.27
75409;BME280;63979;55.644;37.734;2024-03-25T15:47:51;99352.41;;;9.15;48.23
75409;BME280;63979;55.644;37.734;2024-03-25T15:52:52;99364.03;;;9.14;44.86
75409;BME280;63979;55.644;37.734;2024-03-25T15:57:53;99365.06;;;9.24;44.73
75409;BME280;63979;55.644;37.734;2024-03-25T16:02:54;99351.44;;;9.29;43.92
75409;BME280;63979;55.644;37.734;2024-03-25T16:07:56;99336.44;;;9.15;46.07
75409;BME280;63979;55.644;37.734;2024-03-25T16:12:58;99384.78;;;9.22;44.11
75409;BME280;63979;55.644;37.734;2024-03-25T16:17:59;99389.66;;;9.28;44.70
75409;BME280;63979;55.644;37.734;2024-03-25T16:23:00;99383.72;;;9.24;42.97
75409;BME280;63979;55.644;37.734;2024-03-25T16:28:01;99388.41;;;9.21;43.24
75409;BME280;63979;55.644;37.734;2024-03-25T16:33:02;99396.50;;;9.06;43.43
75409;BME280;63979;55.644;37.734;2024-03-25T16:38:03;99391.91;;;8.96;43.72
75409;BME280;63979;55.644;37.734;2024-03-25T16:43:04;99341.34;;;8.70;43.31
75409;BME280;63979;55.644;37.734;2024-03-25T16:48:05;99390.75;;;8.87;43.96
75409;BME280;63979;55.644;37.734;2024-03-25T16:53:07;99376.16;;;8.67;44.43
75409;BME280;63979;55.644;37.734;2024-03-25T16:58:08;99385.38;;;8.62;44.92
75409;BME280;63979;55.644;37.734;2024-03-25T17:03:08;99406.69;;;8.74;45.42
75409;BME280;63979;55.644;37.734;2024-03-25T17:08:09;99380.88;;;8.50;45.34
75409;BME280;63979;55.644;37.734;2024-03-25T17:13:10;99402.81;;;8.66;46.04
75409;BME280;63979;55.644;37.734;2024-03-25T17:18:12;99411.97;;;8.62;46.64
75409;BME280;63979;55.644;37.734;2024-03-25T17:23:16;99394.50;;;8.45;47.97
75409;BME280;63979;55.644;37.734;2024-03-25T17:28:17;99401.84;;;8.27;48.02
75409;BME280;63979;55.644;37.734;2024-03-25T17:33:18;99413.28;;;8.15;49.52
75409;BME280;63979;55.644;37.734;2024-03-25T17:38:19;99406.66;;;8.08;49.92
75409;BME280;63979;55.644;37.734;2024-03-25T17:43:20;99395.31;;;7.92;53.32
75409;BME280;63979;55.644;37.734;2024-03-25T17:48:21;99375.91;;;7.63;52.76
75409;BME280;63979;55.644;37.734;2024-03-25T17:53:22;99415.59;;;7.66;55.38
75409;BME280;63979;55.644;37.734;2024-03-25T17:58:23;99403.56;;;7.46;56.73
75409;BME280;63979;55.644;37.734;2024-03-25T18:03:24;99408.38;;;7.25;57.25
75409;BME280;63979;55.644;37.734;2024-03-25T18:08:25;99418.91;;;7.27;57.53
75409;BME280;63979;55.644;37.734;2024-03-25T18:13:26;99427.91;;;7.24;57.43
75409;BME280;63979;55.644;37.734;2024-03-25T18:18:27;99428.75;;;7.10;58.65
75409;BME280;63979;55.644;37.734;2024-03-25T18:23:28;99419.09;;;6.95;59.46
75409;BME280;63979;55.644;37.734;2024-03-25T18:28:29;99428.75;;;6.96;59.08
75409;BME280;63979;55.644;37.734;2024-03-25T18:33:30;99406.44;;;6.84;58.30
75409;BME280;63979;55.644;37.734;2024-03-25T18:38:31;99428.84;;;6.95;57.75
75409;BME280;63979;55.644;37.734;2024-03-25T18:43:32;99411.25;;;6.64;59.22
75409;BME280;63979;55.644;37.734;2024-03-25T18:48:34;99444.63;;;6.82;59.39
75409;BME280;63979;55.644;37.734;2024-03-25T18:53:35;99447.25;;;6.68;60.52
75409;BME280;63979;55.644;37.734;2024-03-25T18:58:36;99455.78;;;6.73;60.27
75409;BME280;63979;55.644;37.734;2024-03-25T19:03:37;99462.31;;;6.51;61.78
75409;BME280;63979;55.644;37.734;2024-03-25T19:08:38;99464.38;;;6.46;62.50
75409;BME280;63979;55.644;37.734;2024-03-25T19:13:40;99439.03;;;6.27;62.26
75409;BME280;63979;55.644;37.734;2024-03-25T19:18:41;99458.72;;;6.52;62.37
75409;BME280;63979;55.644;37.734;2024-03-25T19:23:42;99462.66;;;6.61;62.02
75409;BME280;63979;55.644;37.734;2024-03-25T19:28:43;99426.59;;;6.43;61.36
75409;BME280;63979;55.644;37.734;2024-03-25T19:33:44;99452.00;;;6.47;61.78
75409;BME280;63979;55.644;37.734;2024-03-25T19:38:45;99459.25;;;6.43;62.07
75409;BME280;63979;55.644;37.734;2024-03-25T19:43:46;99467.00;;;6.32;62.02
75409;BME280;63979;55.644;37.734;2024-03-25T19:48:47;99474.59;;;6.07;64.49
75409;BME280;63979;55.644;37.734;2024-03-25T19:53:48;99481.34;;;5.97;64.97
75409;BME280;63979;55.644;37.734;2024-03-25T19:58:49;99489.31;;;5.79;64.83
75409;BME280;63979;55.644;37.734;2024-03-25T20:03:50;99484.88;;;5.64;65.32
75409;BME280;63979;55.644;37.734;2024-03-25T20:08:52;99480.13;;;5.53;65.83
75409;BME280;63979;55.644;37.734;2024-03-25T20:13:53;99490.81;;;5.52;66.64
75409;BME280;63979;55.644;37.734;2024-03-25T20:18:53;99492.16;;;5.43;67.33
75409;BME280;63979;55.644;37.734;2024-03-25T20:23:54;99510.00;;;5.40;67.08
75409;BME280;63979;55.644;37.734;2024-03-25T20:28:55;99503.84;;;5.39;67.06
75409;BME280;63979;55.644;37.734;2024-03-25T20:33:56;99492.41;;;5.39;66.06
75409;BME280;63979;55.644;37.734;2024-03-25T20:38:57;99511.81;;;5.55;62.20
75409;BME280;63979;55.644;37.734;2024-03-25T20:43:57;99500.16;;;5.59;59.40
75409;BME280;63979;55.644;37.734;2024-03-25T20:48:58;99505.38;;;5.76;57.86
75409;BME280;63979;55.644;37.734;2024-03-25T20:54:00;99514.78;;;5.99;56.94
75409;BME280;63979;55.644;37.734;2024-03-25T20:59:00;99500.41;;;6.03;56.47
75409;BME280;63979;55.644;37.734;2024-03-25T21:04:01;99511.34;;;6.13;56.36
75409;BME280;63979;55.644;37.734;2024-03-25T21:09:02;99505.63;;;6.05;55.83
75409;BME280;63979;55.644;37.734;2024-03-25T21:14:03;99517.25;;;6.18;55.98
75409;BME280;63979;55.644;37.734;2024-03-25T21:19:05;99519.03;;;6.17;56.10
75409;BME280;63979;55.644;37.734;2024-03-25T21:24:06;99523.66;;;6.14;56.92
75409;BME280;63979;55.644;37.734;2024-03-25T21:29:07;99515.03;;;6.10;57.52
75409;BME280;63979;55.644;37.734;2024-03-25T21:34:08;99516.66;;;6.13;57.85
75409;BME280;63979;55.644;37.734;2024-03-25T21:39:09;99518.34;;;6.14;58.13
75409;BME280;63979;55.644;37.734;2024-03-25T21:44:12;99518.69;;;6.08;58.42
75409;BME280;63979;55.644;37.734;2024-03-25T21:49:13;99494.44;;;5.82;57.63
75409;BME280;63979;55.644;37.734;2024-03-25T21:54:14;99525.91;;;5.88;58.33
75409;BME280;63979;55.644;37.734;2024-03-25T21:59:14;99524.34;;;5.69;57.99
75409;BME280;63979;55.644;37.734;2024-03-25T22:04:15;99525.28;;;5.68;58.79
75409;BME280;63979;55.644;37.734;2024-03-25T22:09:16;99527.84;;;5.52;59.05
75409;BME280;63979;55.644;37.734;2024-03-25T22:14:17;99529.53;;;5.37;60.38
75409;BME280;63979;55.644;37.734;2024-03-25T22:19:18;99486.06;;;5.08;59.84
75409;BME280;63979;55.644;37.734;2024-03-25T22:24:19;99528.16;;;5.30;59.68
75409;BME280;63979;55.644;37.734;2024-03-25T22:29:38;99523.38;;;5.19;59.78
75409;BME280;63979;55.644;37.734;2024-03-25T22:34:39;99532.34;;;5.17;59.95
75409;BME280;63979;55.644;37.734;2024-03-25T22:39:43;99499.31;;;4.91;59.76
75409;BME280;63979;55.644;37.734;2024-03-25T22:44:45;99531.41;;;5.00;59.88
75409;BME280;63979;55.644;37.734;2024-03-25T22:49:46;99535.53;;;5.06;60.19
75409;BME280;63979;55.644;37.734;2024-03-25T22:54:48;99548.94;;;5.20;59.59
75409;BME280;63979;55.644;37.734;2024-03-25T22:59:49;99533.97;;;5.19;59.38
75409;BME280;63979;55.644;37.734;2024-03-25T23:04:50;99541.78;;;5.22;59.73
75409;BME280;63979;55.644;37.734;2024-03-25T23:09:51;99546.41;;;5.17;60.28
75409;BME280;63979;55.644;37.734;2024-03-25T23:14:52;99528.84;;;4.99;59.40
75409;BME280;63979;55.644;37.734;2024-03-25T23:19:52;99548.13;;;5.01;59.27
75409;BME280;63979;55.644;37.734;2024-03-25T23:24:53;99534.34;;;4.77;59.97
75409;BME280;63979;55.644;37.734;2024-03-25T23:29:55;99549.19;;;4.80;60.54
75409;BME280;63979;55.644;37.734;2024-03-25T23:34:55;99549.50;;;4.74;60.64
75409;BME280;63979;55.644;37.734;2024-03-25T23:39:56;99545.16;;;4.73;60.74
75409;BME280;63979;55.644;37.734;2024-03-25T23:44:57;99521.41;;;4.54;59.88
75409;BME280;63979;55.644;37.734;2024-03-25T23:50:01;99563.66;;;4.73;59.82
75409;BME280;63979;55.644;37.734;2024-03-25T23:55:05;99551.69;;;4.47;61.05
